Time;durP1;ratioP1;P1;durP2;ratioP2;P2;SDS_P1;SDS_P2;PMS_P1;PMS_P2;Temp;Humidity;BMP_temperature;BMP_pressure;BME280_temperature;BME280_humidity;BME280_pressure;Samples;Min_cycle;Max_cycle;Signal;HPM_P1;HPM_P2
2024/03/07 00:01:00;;;;;;;64.10;33.88;;;7.30;99.90;;;;;;5033065;28;20056;-79
2024/03/07 00:03:26;;;;;;;63.83;33.83;;;7.20;99.90;;;;;;5033985;28;20028;-79
2024/03/07 00:05:51;;;;;;;62.85;34.13;;;7.20;99.90;;;;;;5033857;28;20025;-78
2024/03/07 00:08:17;;;;;;;68.05;34.47;;;7.20;99.90;;;;;;5033899;28;20022;-78
2024/03/07 00:10:44;;;;;;;68.00;33.60;;;7.20;99.90;;;;;;5016906;28;20026;-78
2024/03/07 00:13:10;;;;;;;62.00;30.92;;;7.20;99.90;;;;;;5033897;28;20048;-79
2024/03/07 00:15:36;;;;;;;71.30;33.85;;;7.10;99.90;;;;;;5034153;28;20482;-80
2024/03/07 00:18:02;;;;;;;65.30;33.80;;;7.10;99.90;;;;;;5033042;28;20027;-79
2024/03/07 00:20:28;;;;;;;66.70;35.20;;;7.10;99.90;;;;;;5029299;28;20030;-79
2024/03/07 00:22:54;;;;;;;67.30;34.28;;;7.10;99.90;;;;;;5026305;28;20021;-79
2024/03/07 00:25:20;;;;;;;71.47;38.03;;;7.10;99.90;;;;;;5034019;28;20026;-79
2024/03/07 00:27:45;;;;;;;80.88;40.75;;;7.00;99.90;;;;;;5033547;28;20033;-79
2024/03/07 00:30:13;;;;;;;71.65;36.72;;;7.00;99.90;;;;;;5033536;28;20350;-79
2024/03/07 00:32:40;;;;;;;65.55;34.33;;;7.00;99.90;;;;;;5033721;28;20548;-79
2024/03/07 00:35:08;;;;;;;63.58;33.33;;;7.00;99.90;;;;;;5033752;28;20101;-79
2024/03/07 00:37:34;;;;;;;71.88;35.53;;;6.90;99.90;;;;;;5019663;28;20041;-79
2024/03/07 00:40:00;;;;;;;68.00;37.40;;;7.00;99.90;;;;;;5033525;28;20029;-79
2024/03/07 00:42:27;;;;;;;74.00;35.50;;;6.90;99.90;;;;;;5033010;28;20513;-79
2024/03/07 00:44:53;;;;;;;67.55;34.53;;;6.90;99.90;;;;;;5032641;28;20112;-78
2024/03/07 00:47:18;;;;;;;71.60;34.15;;;6.80;99.90;;;;;;5032269;28;20116;-78
2024/03/07 00:49:48;;;;;;;64.35;33.85;;;6.80;99.90;;;;;;5020527;28;20021;-78
2024/03/07 00:52:14;;;;;;;62.85;32.97;;;6.90;99.90;;;;;;5032671;28;20113;-78
2024/03/07 00:54:40;;;;;;;63.45;31.55;;;6.80;99.90;;;;;;5015920;28;20040;-78
2024/03/07 00:57:07;;;;;;;58.88;29.45;;;6.80;99.90;;;;;;5015262;28;20474;-77
2024/03/07 00:59:33;;;;;;;55.60;28.88;;;6.80;99.90;;;;;;5025103;28;20022;-78
2024/03/07 01:01:59;;;;;;;61.45;31.13;;;6.70;99.90;;;;;;5024464;28;20076;-77
2024/03/07 01:04:30;;;;;;;54.85;27.75;;;6.80;99.90;;;;;;5032091;28;20029;-78
2024/03/07 01:06:59;;;;;;;56.25;28.50;;;6.80;99.90;;;;;;5015398;28;20033;-78
2024/03/07 01:09:28;;;;;;;51.03;29.05;;;6.70;99.90;;;;;;5015754;28;20462;-77
2024/03/07 01:11:54;;;;;;;54.38;28.65;;;6.70;99.90;;;;;;5033320;28;20021;-77
2024/03/07 01:14:20;;;;;;;66.80;32.53;;;6.70;99.90;;;;;;5032632;28;20435;-78
2024/03/07 01:16:47;;;;;;;52.38;26.52;;;6.70;99.90;;;;;;5033161;28;20493;-77
2024/03/07 01:19:12;;;;;;;63.05;32.42;;;6.80;99.90;;;;;;5033143;28;20021;-77
2024/03/07 01:21:38;;;;;;;63.53;31.33;;;6.70;99.90;;;;;;5033262;28;20478;-78
2024/03/07 01:24:05;;;;;;;59.55;29.58;;;6.70;99.90;;;;;;5032766;28;20025;-78
2024/03/07 01:26:33;;;;;;;54.25;27.17;;;6.70;99.90;;;;;;5031892;28;20053;-78
2024/03/07 01:28:59;;;;;;;58.53;30.92;;;6.70;99.90;;;;;;5032643;28;20021;-78
2024/03/07 01:31:25;;;;;;;61.55;31.42;;;6.70;99.90;;;;;;5019853;28;20041;-78
2024/03/07 01:33:51;;;;;;;58.78;29.73;;;6.70;99.90;;;;;;5033162;28;20057;-78
2024/03/07 01:36:18;;;;;;;60.00;30.58;;;6.70;99.90;;;;;;5032735;28;20031;-77
2024/03/07 01:38:44;;;;;;;67.47;33.67;;;6.70;99.90;;;;;;5032550;28;20069;-78
2024/03/07 01:41:10;;;;;;;71.57;34.58;;;6.70;99.90;;;;;;5032759;28;20057;-78
2024/03/07 01:43:36;;;;;;;70.55;34.97;;;6.70;99.90;;;;;;5032538;28;20041;-78
2024/03/07 01:46:03;;;;;;;66.45;33.42;;;6.70;99.90;;;;;;5019603;28;20022;-78
2024/03/07 01:48:31;;;;;;;65.28;33.17;;;6.70;99.90;;;;;;5032515;28;20535;-78
2024/03/07 01:51:00;;;;;;;62.38;29.45;;;6.60;99.90;;;;;;5032544;28;20112;-78
2024/03/07 01:53:27;;;;;;;69.05;34.58;;;6.70;99.90;;;;;;5032361;28;20363;-77
2024/03/07 01:55:56;;;;;;;59.97;32.15;;;6.60;99.90;;;;;;5032697;28;20113;-77
2024/03/07 01:58:23;;;;;;;61.15;30.83;;;6.60;99.90;;;;;;5031878;28;20072;-77
2024/03/07 02:00:49;;;;;;;66.82;32.15;;;6.60;99.90;;;;;;5032571;28;20035;-76
2024/03/07 02:03:16;;;;;;;73.82;34.85;;;6.60;99.90;;;;;;5031971;28;20033;-77
2024/03/07 02:05:42;;;;;;;68.45;33.22;;;6.60;99.90;;;;;;5032380;28;20025;-77
2024/03/07 02:08:07;;;;;;;70.68;34.80;;;6.60;99.90;;;;;;5014427;28;20508;-76
2024/03/07 02:10:33;;;;;;;75.22;36.03;;;6.50;99.90;;;;;;5032311;28;20385;-77
2024/03/07 02:13:00;;;;;;;66.97;33.63;;;6.60;99.90;;;;;;5032245;28;20484;-76
2024/03/07 02:15:26;;;;;;;70.60;34.97;;;6.60;99.90;;;;;;5032167;28;20021;-76
2024/03/07 02:17:52;;;;;;;62.83;32.28;;;6.60;99.90;;;;;;5032159;28;20103;-76
2024/03/07 02:20:18;;;;;;;64.32;31.08;;;6.50;99.90;;;;;;5032021;28;20056;-76
2024/03/07 02:22:44;;;;;;;65.78;31.83;;;6.50;99.90;;;;;;5032225;28;20064;-76
2024/03/07 02:25:10;;;;;;;71.35;32.67;;;6.50;99.90;;;;;;5031462;28;20126;-76
2024/03/07 02:27:36;;;;;;;77.32;35.30;;;6.50;99.90;;;;;;5031396;28;20037;-76
2024/03/07 02:30:02;;;;;;;67.22;33.00;;;6.50;99.90;;;;;;5031997;28;20029;-76
2024/03/07 02:32:28;;;;;;;63.75;32.88;;;6.50;99.90;;;;;;5031970;28;20100;-76
2024/03/07 02:34:54;;;;;;;67.32;33.75;;;6.50;99.90;;;;;;5032230;28;20794;-76
2024/03/07 02:37:19;;;;;;;72.35;34.67;;;6.40;99.90;;;;;;5013774;28;20494;-76
2024/03/07 02:39:45;;;;;;;70.07;34.03;;;6.50;99.90;;;;;;5013938;28;20544;-76
2024/03/07 02:42:11;;;;;;;73.40;35.45;;;6.50;99.90;;;;;;5031906;28;20117;-77
2024/03/07 02:44:38;;;;;;;81.68;36.35;;;6.50;99.90;;;;;;5031878;28;20026;-76
2024/03/07 02:47:05;;;;;;;77.50;34.60;;;6.50;99.90;;;;;;5031742;28;20028;-77
2024/03/07 02:49:30;;;;;;;78.60;35.53;;;6.40;99.90;;;;;;5032003;28;20025;-76
2024/03/07 02:51:56;;;;;;;70.95;34.35;;;6.40;99.90;;;;;;5032096;28;20104;-76
2024/03/07 02:54:22;;;;;;;68.45;32.92;;;6.40;99.90;;;;;;5031069;28;20464;-77
2024/03/07 02:56:47;;;;;;;79.80;34.15;;;6.40;99.90;;;;;;5030809;28;20025;-77
2024/03/07 02:59:13;;;;;;;78.35;36.50;;;6.40;99.90;;;;;;5014111;28;20109;-77
2024/03/07 03:01:39;;;;;;;89.05;39.90;;;6.40;99.90;;;;;;5031634;28;20060;-77
2024/03/07 03:04:05;;;;;;;85.93;38.80;;;6.40;99.90;;;;;;5031865;28;20060;-77
2024/03/07 03:06:31;;;;;;;71.53;34.20;;;6.40;99.90;;;;;;5013781;28;20065;-77
2024/03/07 03:08:57;;;;;;;80.85;31.50;;;6.30;99.90;;;;;;5031918;28;20014;-77
2024/03/07 03:11:22;;;;;;;67.68;30.80;;;6.30;99.90;;;;;;5031439;28;20049;-77
2024/03/07 03:13:48;;;;;;;76.45;35.33;;;6.30;99.90;;;;;;5031323;28;20029;-77
2024/03/07 03:16:14;;;;;;;77.45;33.17;;;6.30;99.90;;;;;;5031021;28;20551;-77
2024/03/07 03:18:40;;;;;;;84.57;38.05;;;6.20;99.90;;;;;;5031582;28;20033;-77
2024/03/07 03:21:05;;;;;;;81.63;36.63;;;6.30;99.90;;;;;;5031256;28;20045;-77
2024/03/07 03:23:31;;;;;;;90.25;39.30;;;6.30;99.90;;;;;;5014010;28;20044;-77
2024/03/07 03:25:57;;;;;;;80.60;36.10;;;6.20;99.90;;;;;;5031032;28;20029;-78
2024/03/07 03:28:23;;;;;;;78.90;34.65;;;6.20;99.90;;;;;;5031449;28;20025;-77
2024/03/07 03:30:53;;;;;;;76.82;34.95;;;6.20;99.90;;;;;;5031293;28;20096;-78
2024/03/07 03:33:20;;;;;;;82.28;37.35;;;6.20;99.90;;;;;;5031745;28;20029;-77
2024/03/07 03:35:46;;;;;;;89.60;36.45;;;6.20;99.90;;;;;;5013967;28;20478;-77
2024/03/07 03:38:12;;;;;;;82.95;35.42;;;6.10;99.90;;;;;;5017209;28;20554;-77
2024/03/07 03:40:38;;;;;;;99.10;38.92;;;6.10;99.90;;;;;;5034684;28;20108;-77
2024/03/07 03:43:04;;;;;;;86.95;37.17;;;6.10;99.90;;;;;;5035493;28;20021;-77
2024/03/07 03:45:32;;;;;;;94.53;41.40;;;6.10;99.90;;;;;;5034739;28;20056;-79
2024/03/07 03:47:57;;;;;;;94.25;39.58;;;6.10;99.90;;;;;;5035056;28;20013;-77
2024/03/07 03:50:23;;;;;;;99.35;43.30;;;6.10;99.90;;;;;;5034949;28;20026;-77
2024/03/07 03:52:49;;;;;;;117.38;47.30;;;6.10;99.90;;;;;;5034932;28;20021;-77
2024/03/07 03:55:15;;;;;;;112.35;45.83;;;6.10;99.90;;;;;;5034981;28;20021;-79
2024/03/07 03:57:42;;;;;;;108.85;48.70;;;6.20;99.90;;;;;;5034640;28;20076;-78
2024/03/07 04:00:12;;;;;;;107.88;46.42;;;6.20;99.90;;;;;;5034715;28;20453;-79
2024/03/07 04:02:41;;;;;;;108.82;44.70;;;6.10;99.90;;;;;;5034716;28;20437;-78
2024/03/07 04:05:09;;;;;;;112.25;46.08;;;6.20;99.90;;;;;;5034753;28;20017;-79
2024/03/07 04:07:35;;;;;;;110.38;45.85;;;6.20;99.90;;;;;;5034256;28;20096;-79
2024/03/07 04:10:03;;;;;;;115.55;47.33;;;6.20;99.90;;;;;;5034568;28;20026;-78
2024/03/07 04:12:29;;;;;;;116.70;47.33;;;6.10;99.90;;;;;;5034445;28;20021;-78
2024/03/07 04:14:55;;;;;;;112.53;47.00;;;6.10;99.90;;;;;;5016873;28;20635;-78
2024/03/07 04:17:21;;;;;;;115.63;51.33;;;6.10;99.90;;;;;;5034228;28;20124;-78
2024/03/07 04:19:47;;;;;;;110.20;45.30;;;6.10;99.90;;;;;;5034542;28;20030;-78
2024/03/07 04:22:13;;;;;;;121.65;47.83;;;6.10;99.90;;;;;;5034054;28;20029;-78
2024/03/07 04:24:40;;;;;;;141.13;53.03;;;6.00;99.90;;;;;;5034214;28;20492;-78
2024/03/07 04:27:07;;;;;;;115.20;47.85;;;6.10;99.90;;;;;;5033972;28;20021;-78
2024/03/07 04:29:33;;;;;;;114.13;49.10;;;6.10;99.90;;;;;;5023094;28;20485;-78
2024/03/07 04:32:03;;;;;;;120.72;48.72;;;6.10;99.90;;;;;;5009877;28;20037;-78
2024/03/07 04:34:32;;;;;;;113.68;45.92;;;6.10;99.90;;;;;;5027532;28;20494;-79
2024/03/07 04:37:00;;;;;;;105.55;45.28;;;6.10;99.90;;;;;;5033608;28;20204;-79
2024/03/07 04:39:32;;;;;;;109.30;47.65;;;6.10;99.90;;;;;;5016194;28;20044;-80
2024/03/07 04:42:01;;;;;;;118.80;51.43;;;6.10;99.90;;;;;;5033813;28;20036;-79
2024/03/07 04:44:32;;;;;;;119.05;47.80;;;6.10;99.90;;;;;;5033554;28;20083;-79
2024/03/07 04:46:59;;;;;;;121.25;53.42;;;6.10;99.90;;;;;;5033430;28;20021;-80
2024/03/07 04:49:27;;;;;;;105.43;46.67;;;6.00;99.90;;;;;;5033449;28;20417;-81
2024/03/07 04:51:53;;;;;;;119.18;49.58;;;6.00;99.90;;;;;;5033805;28;20021;-80
2024/03/07 04:54:21;;;;;;;114.47;50.65;;;6.00;99.90;;;;;;5033414;28;20109;-81
2024/03/07 04:56:47;;;;;;;109.30;49.53;;;6.00;99.90;;;;;;5033513;28;20448;-81
2024/03/07 04:59:14;;;;;;;116.03;48.47;;;6.00;99.90;;;;;;5033325;28;20033;-79
2024/03/07 05:01:40;;;;;;;122.25;49.53;;;6.00;99.90;;;;;;5033263;28;20076;-81
2024/03/07 05:04:07;;;;;;;108.00;47.13;;;6.00;99.90;;;;;;5033581;28;20034;-81
2024/03/07 05:06:35;;;;;;;113.22;49.67;;;6.00;99.90;;;;;;5033104;28;20025;-80
2024/03/07 05:09:06;;;;;;;113.13;49.50;;;6.00;99.90;;;;;;5015507;28;20399;-80
2024/03/07 05:11:33;;;;;;;124.30;50.83;;;5.90;99.90;;;;;;5033376;28;20022;-81
2024/03/07 05:14:00;;;;;;;118.70;49.83;;;5.90;99.90;;;;;;5032804;28;20030;-82
2024/03/07 05:16:34;;;;;;;122.57;50.42;;;6.00;99.90;;;;;;5033220;28;20104;-81
2024/03/07 05:18:59;;;;;;;121.38;49.63;;;6.00;99.90;;;;;;5033196;28;20029;-81
2024/03/07 05:21:35;;;;;;;125.43;51.03;;;6.00;99.90;;;;;;5015285;28;20037;-80
2024/03/07 05:24:02;;;;;;;107.47;49.15;;;5.90;99.90;;;;;;5033337;28;20025;-80
2024/03/07 05:26:28;;;;;;;109.03;47.25;;;6.00;99.90;;;;;;5032918;28;20017;-81
2024/03/07 05:28:56;;;;;;;107.57;48.28;;;5.90;99.90;;;;;;5032765;28;20048;-82
2024/03/07 05:31:22;;;;;;;113.53;48.67;;;6.00;99.90;;;;;;5033102;28;20432;-81
2024/03/07 05:33:48;;;;;;;104.38;45.63;;;5.90;99.90;;;;;;5033033;28;20120;-79
2024/03/07 05:36:14;;;;;;;99.65;45.65;;;5.90;99.90;;;;;;5026204;28;20382;-80
2024/03/07 05:38:43;;;;;;;107.53;48.60;;;5.90;99.90;;;;;;5026544;28;20111;-81
2024/03/07 05:41:10;;;;;;;103.97;46.85;;;5.90;99.90;;;;;;5020183;28;20057;-82
2024/03/07 05:43:36;;;;;;;101.57;47.30;;;5.80;99.90;;;;;;5032423;28;20030;-81
2024/03/07 05:46:03;;;;;;;100.82;46.00;;;5.90;99.90;;;;;;5032655;28;20100;-79
2024/03/07 05:48:28;;;;;;;110.07;48.22;;;5.90;99.90;;;;;;5032921;28;20053;-80
2024/03/07 05:50:54;;;;;;;97.35;44.05;;;5.90;99.90;;;;;;5032563;28;20053;-81
2024/03/07 05:53:20;;;;;;;98.60;46.63;;;5.80;99.90;;;;;;5032666;28;20030;-82
2024/03/07 05:55:46;;;;;;;111.25;47.10;;;5.80;99.90;;;;;;5027965;28;20104;-81
2024/03/07 05:58:12;;;;;;;99.22;42.58;;;5.80;99.90;;;;;;5017177;28;20164;-81
2024/03/07 06:00:39;;;;;;;103.10;46.55;;;5.80;99.90;;;;;;5032248;28;20069;-81
2024/03/07 06:03:05;;;;;;;115.80;49.85;;;5.80;99.90;;;;;;5032159;28;20533;-79
2024/03/07 06:05:31;;;;;;;108.60;48.35;;;5.80;99.90;;;;;;5014717;28;20025;-79
2024/03/07 06:07:57;;;;;;;105.97;47.97;;;5.70;99.90;;;;;;5032364;28;20381;-83
2024/03/07 06:10:26;;;;;;;107.32;46.83;;;5.70;99.90;;;;;;5001363;28;20025;-79
2024/03/07 06:12:53;;;;;;;106.70;46.38;;;5.70;99.90;;;;;;4950560;28;20306;-79
2024/03/07 06:15:18;;;;;;;102.95;44.88;;;5.70;99.90;;;;;;4940070;28;20026;-81
2024/03/07 06:17:46;;;;;;;106.63;49.35;;;5.80;99.90;;;;;;5031747;28;20033;-80
2024/03/07 06:20:34;;;;;;;96.68;45.40;;;5.70;99.90;;;;;;5030860;28;20100;-80
2024/03/07 06:22:59;;;;;;;99.00;44.58;;;5.70;99.90;;;;;;5031206;28;20048;-80
2024/03/07 06:25:36;;;;;;;101.75;45.50;;;5.70;99.90;;;;;;5032176;28;20026;-81
2024/03/07 06:28:11;;;;;;;103.63;45.70;;;5.60;99.90;;;;;;5032003;28;20029;-81
2024/03/07 06:30:41;;;;;;;97.47;43.85;;;5.60;99.90;;;;;;5031047;28;20029;-79
2024/03/07 06:33:07;;;;;;;97.30;42.63;;;5.60;99.90;;;;;;5019548;28;20103;-80
2024/03/07 06:35:39;;;;;;;103.88;44.92;;;5.60;99.90;;;;;;5031635;28;20470;-81
2024/03/07 06:38:09;;;;;;;109.45;46.55;;;5.70;99.90;;;;;;5031061;28;20033;-79
2024/03/07 06:40:36;;;;;;;104.68;45.78;;;5.60;99.90;;;;;;5031590;28;20029;-80
2024/03/07 06:43:06;;;;;;;104.63;44.45;;;5.60;99.90;;;;;;5032192;28;20033;-79
2024/03/07 06:45:33;;;;;;;104.78;46.45;;;5.60;99.90;;;;;;5029830;28;20021;-81
2024/03/07 06:47:59;;;;;;;104.75;46.55;;;5.60;99.90;;;;;;5029974;28;20049;-75
2024/03/07 06:50:25;;;;;;;113.80;48.10;;;5.60;99.90;;;;;;5031859;28;20089;-78
2024/03/07 06:52:51;;;;;;;110.00;49.38;;;5.60;99.90;;;;;;5024621;28;20104;-79
2024/03/07 06:55:35;;;;;;;106.07;46.28;;;5.60;99.90;;;;;;5030743;28;20035;-78
2024/03/07 06:58:04;;;;;;;107.35;48.15;;;5.70;99.90;;;;;;5006968;28;20063;-79
2024/03/07 07:00:31;;;;;;;114.55;50.22;;;5.70;99.90;;;;;;5018667;28;20080;-79
2024/03/07 07:02:57;;;;;;;117.28;49.97;;;5.70;99.90;;;;;;5024352;28;20406;-78
2024/03/07 07:05:23;;;;;;;122.05;52.42;;;5.60;99.90;;;;;;5031550;28;20101;-78
2024/03/07 07:07:49;;;;;;;121.10;53.40;;;5.70;99.90;;;;;;5031581;28;20466;-78
2024/03/07 07:10:23;;;;;;;123.90;53.42;;;5.70;99.90;;;;;;5031649;28;20017;-78
2024/03/07 07:12:50;;;;;;;119.50;53.03;;;5.80;99.90;;;;;;5032646;28;20377;-78
2024/03/07 07:15:17;;;;;;;120.28;53.35;;;5.80;99.90;;;;;;5035155;28;20514;-77
2024/03/07 07:17:46;;;;;;;123.30;54.28;;;5.80;99.90;;;;;;5034843;28;20107;-78
2024/03/07 07:20:14;;;;;;;114.75;52.58;;;5.80;99.90;;;;;;5035276;28;20068;-77
2024/03/07 07:22:45;;;;;;;126.63;52.03;;;5.90;99.90;;;;;;5016306;28;20037;-77
2024/03/07 07:25:15;;;;;;;125.55;52.90;;;5.90;99.90;;;;;;5035221;28;20017;-76
2024/03/07 07:27:45;;;;;;;112.72;51.38;;;5.90;99.90;;;;;;5034912;28;20501;-75
2024/03/07 07:30:12;;;;;;;115.95;50.28;;;6.00;99.90;;;;;;5035182;28;20079;-76
2024/03/07 07:32:39;;;;;;;132.48;53.72;;;6.00;99.90;;;;;;5034834;28;20029;-76
2024/03/07 07:35:11;;;;;;;126.95;53.85;;;5.90;99.90;;;;;;5035402;28;20473;-76
2024/03/07 07:37:43;;;;;;;127.15;56.30;;;5.90;99.90;;;;;;5013878;28;20366;-78
2024/03/07 07:40:18;;;;;;;138.18;57.13;;;5.90;99.90;;;;;;5028754;28;20048;-76
2024/03/07 07:42:46;;;;;;;131.23;54.70;;;6.00;99.90;;;;;;5017081;28;20037;-76
2024/03/07 07:45:13;;;;;;;118.15;52.88;;;6.10;99.90;;;;;;5034581;28;20052;-76
2024/03/07 07:47:41;;;;;;;130.13;54.60;;;6.20;99.90;;;;;;5034372;28;20109;-76
2024/03/07 07:50:17;;;;;;;125.10;53.53;;;6.20;99.90;;;;;;5034807;28;20104;-78
2024/03/07 07:52:46;;;;;;;121.65;56.72;;;6.30;99.90;;;;;;5034533;28;20527;-78
2024/03/07 07:55:14;;;;;;;117.30;53.90;;;6.40;99.90;;;;;;5021687;28;20061;-78
2024/03/07 07:57:44;;;;;;;122.68;57.35;;;6.40;99.90;;;;;;5034517;28;20065;-76
2024/03/07 08:00:23;;;;;;;120.28;55.10;;;6.50;99.90;;;;;;5032695;28;20033;-77
2024/03/07 08:03:03;;;;;;;120.68;51.50;;;6.50;99.90;;;;;;5027556;28;20025;-78
2024/03/07 08:05:33;;;;;;;110.85;51.63;;;6.70;99.90;;;;;;5032249;28;20049;-81
2024/03/07 08:08:04;;;;;;;109.32;50.45;;;6.70;99.90;;;;;;5023149;28;20112;-80
2024/03/07 08:10:30;;;;;;;100.15;48.47;;;6.90;99.90;;;;;;5033312;28;20060;-80
2024/03/07 08:13:02;;;;;;;106.22;48.63;;;7.00;99.90;;;;;;5016056;28;20033;-79
2024/03/07 08:15:29;;;;;;;90.97;44.90;;;6.90;99.90;;;;;;5023946;28;20036;-80
2024/03/07 08:17:55;;;;;;;98.32;48.50;;;7.00;99.90;;;;;;5033066;28;20044;-79
2024/03/07 08:20:23;;;;;;;93.55;46.70;;;7.00;99.90;;;;;;5016479;28;20028;-82
2024/03/07 08:22:53;;;;;;;87.97;43.92;;;7.10;99.90;;;;;;5021418;28;20049;-80
2024/03/07 08:25:24;;;;;;;93.03;45.17;;;7.10;99.90;;;;;;5027250;28;20406;-78
2024/03/07 08:27:52;;;;;;;93.47;45.38;;;7.30;99.90;;;;;;5029291;28;20026;-80
2024/03/07 08:30:18;;;;;;;95.53;46.15;;;7.30;99.90;;;;;;5010136;28;20477;-81
2024/03/07 08:32:51;;;;;;;92.30;46.17;;;7.40;99.90;;;;;;5021105;28;20045;-81
2024/03/07 08:35:17;;;;;;;93.20;44.65;;;7.50;99.90;;;;;;5023829;28;20474;-81
2024/03/07 08:37:54;;;;;;;91.82;44.45;;;7.60;99.90;;;;;;5033036;28;20032;-82
2024/03/07 08:40:21;;;;;;;85.30;43.47;;;7.60;99.90;;;;;;5025111;28;20048;-83
2024/03/07 08:42:49;;;;;;;89.10;43.10;;;7.60;99.90;;;;;;5016063;28;20022;-75
2024/03/07 08:45:18;;;;;;;83.93;41.15;;;7.60;99.90;;;;;;5016386;28;20029;-84
2024/03/07 08:47:45;;;;;;;79.28;41.83;;;7.70;99.90;;;;;;5033967;28;20014;-78
2024/03/07 08:50:13;;;;;;;82.20;41.47;;;7.70;99.90;;;;;;5034176;28;20022;-78
2024/03/07 08:52:40;;;;;;;88.57;46.47;;;7.70;99.90;;;;;;5033609;28;20040;-83
2024/03/07 08:55:09;;;;;;;85.70;44.25;;;8.00;99.90;;;;;;5034215;28;20033;-76
2024/03/07 08:57:36;;;;;;;85.93;45.70;;;8.20;99.90;;;;;;5033354;28;20093;-81
2024/03/07 09:00:11;;;;;;;84.85;45.05;;;8.20;99.90;;;;;;5034328;28;20029;-80
2024/03/07 09:02:38;;;;;;;76.28;41.00;;;8.20;99.90;;;;;;5032365;28;20455;-83
2024/03/07 09:05:05;;;;;;;84.47;44.08;;;8.10;99.90;;;;;;5034247;28;20014;-86
2024/03/07 09:07:32;;;;;;;76.15;41.05;;;8.20;99.90;;;;;;5033866;28;20029;-77
2024/03/07 09:09:58;;;;;;;73.25;39.72;;;8.40;99.90;;;;;;5034149;28;20018;-79
2024/03/07 09:12:26;;;;;;;82.85;44.63;;;8.50;99.90;;;;;;5033662;28;20057;-84
2024/03/07 09:14:52;;;;;;;72.85;42.40;;;8.70;99.90;;;;;;5033799;28;20120;-80
2024/03/07 09:17:18;;;;;;;67.97;38.58;;;8.70;99.90;;;;;;5032988;28;20034;-80
2024/03/07 09:19:44;;;;;;;67.68;38.13;;;8.60;99.90;;;;;;5031861;28;20509;-80
2024/03/07 09:22:10;;;;;;;70.88;37.75;;;8.70;99.90;;;;;;5033683;28;20116;-84
2024/03/07 09:24:37;;;;;;;69.07;38.58;;;8.80;99.90;;;;;;5030308;28;20069;-79
2024/03/07 09:27:04;;;;;;;72.22;38.80;;;8.80;99.90;;;;;;5023718;28;20022;-82
2024/03/07 09:29:30;;;;;;;68.97;38.75;;;8.90;99.90;;;;;;5033280;28;20013;-76
2024/03/07 09:31:57;;;;;;;71.22;39.22;;;9.00;99.90;;;;;;5033539;28;20029;-79
2024/03/07 09:34:25;;;;;;;66.30;38.17;;;9.10;99.90;;;;;;5033344;28;20032;-87
2024/03/07 09:36:51;;;;;;;72.22;38.45;;;9.10;99.90;;;;;;5028430;28;20109;-79
2024/03/07 09:39:18;;;;;;;68.80;37.13;;;9.10;99.90;;;;;;5020587;28;20025;-87
2024/03/07 09:41:44;;;;;;;68.88;38.38;;;9.30;99.90;;;;;;5032809;28;20033;-73
2024/03/07 09:44:17;;;;;;;67.35;37.95;;;9.40;99.90;;;;;;5032746;28;20024;-77
2024/03/07 09:46:46;;;;;;;69.18;38.05;;;9.50;99.90;;;;;;5033139;28;20026;-82
2024/03/07 09:49:13;;;;;;;68.40;37.80;;;9.50;99.90;;;;;;5032835;28;20032;-78
2024/03/07 09:51:39;;;;;;;64.82;35.42;;;9.50;99.90;;;;;;5032806;28;20497;-79
2024/03/07 09:54:05;;;;;;;68.70;36.72;;;9.60;99.90;;;;;;5031193;28;20470;-82
2024/03/07 09:56:32;;;;;;;65.22;35.92;;;9.60;99.90;;;;;;5032259;28;20445;-73
2024/03/07 09:59:01;;;;;;;63.63;35.60;;;9.70;99.90;;;;;;5032608;28;20032;-79
2024/03/07 10:01:29;;;;;;;66.40;36.42;;;9.70;99.90;;;;;;5033127;28;20043;-75
2024/03/07 10:04:06;;;;;;;59.55;34.72;;;9.80;99.90;;;;;;5032735;28;20033;-74
2024/03/07 10:06:32;;;;;;;61.40;34.30;;;10.00;99.90;;;;;;5030350;28;20021;-73
2024/03/07 10:08:59;;;;;;;56.00;34.25;;;10.10;99.90;;;;;;5022490;28;20454;-75
2024/03/07 10:11:25;;;;;;;61.05;34.88;;;10.30;99.90;;;;;;5029904;28;20027;-75
2024/03/07 10:13:51;;;;;;;57.78;35.05;;;10.30;99.90;;;;;;5032405;28;20026;-73
2024/03/07 10:16:18;;;;;;;59.70;34.45;;;10.20;99.90;;;;;;5032714;28;20040;-85
2024/03/07 10:18:46;;;;;;;60.75;36.10;;;10.10;99.90;;;;;;5033416;28;20026;-80
2024/03/07 10:21:16;;;;;;;57.30;33.20;;;10.20;99.90;;;;;;5032738;28;20053;-81
2024/03/07 10:23:42;;;;;;;59.75;33.10;;;10.40;99.90;;;;;;5032792;28;20493;-82
2024/03/07 10:26:10;;;;;;;52.67;32.42;;;10.40;99.90;;;;;;5032257;28;20120;-80
2024/03/07 10:28:36;;;;;;;56.03;31.55;;;10.60;99.90;;;;;;5014981;28;20053;-75
2024/03/07 10:31:03;;;;;;;56.83;30.75;;;10.60;99.90;;;;;;5028169;28;20034;-80
2024/03/07 10:33:32;;;;;;;53.75;31.58;;;10.80;99.90;;;;;;5011822;28;20028;-74
2024/03/07 10:35:59;;;;;;;49.22;30.95;;;10.80;99.90;;;;;;4997313;28;20081;-77
2024/03/07 10:38:25;;;;;;;48.97;31.58;;;10.70;99.90;;;;;;5016497;28;20053;-73
2024/03/07 10:40:55;;;;;;;49.33;30.77;;;10.70;99.90;;;;;;4996687;28;20116;-74
2024/03/07 10:43:21;;;;;;;53.97;31.35;;;10.90;99.90;;;;;;5012731;28;20032;-74
2024/03/07 10:45:48;;;;;;;52.35;30.55;;;11.00;99.90;;;;;;4994582;28;20029;-83
2024/03/07 10:48:18;;;;;;;53.53;29.55;;;11.00;99.90;;;;;;5014943;28;20034;-84
2024/03/07 10:51:20;;;;;;;53.13;30.02;;;11.10;99.90;;;;;;5012390;28;20025;-85
2024/03/07 10:53:49;;;;;;;47.80;28.42;;;11.20;99.90;;;;;;5019001;28;20585;-80
2024/03/07 10:57:05;;;;;;;42.05;27.50;;;11.00;99.90;;;;;;5015137;28;20040;-77
2024/03/07 10:59:33;;;;;;;50.63;29.60;;;10.80;99.90;;;;;;4979371;28;20030;-82
2024/03/07 11:02:04;;;;;;;45.60;28.13;;;10.50;99.90;;;;;;4978588;28;20045;-88
2024/03/07 11:04:31;;;;;;;49.13;29.70;;;10.30;99.90;;;;;;4998285;28;20046;-80
2024/03/07 11:06:58;;;;;;;47.95;28.75;;;10.50;99.90;;;;;;5016536;28;20029;-84
2024/03/07 11:09:28;;;;;;;45.58;27.70;;;10.50;99.90;;;;;;5015468;28;20378;-84
2024/03/07 11:11:56;;;;;;;43.00;25.88;;;10.50;99.90;;;;;;5013990;28;20370;-79
2024/03/07 11:14:23;;;;;;;47.47;26.27;;;10.40;99.90;;;;;;5017929;28;20026;-84
2024/03/07 11:16:50;;;;;;;43.90;25.80;;;10.30;99.90;;;;;;5018356;28;20101;-84
2024/03/07 11:19:27;;;;;;;41.03;25.63;;;10.30;99.90;;;;;;5014927;28;20028;-84
2024/03/07 11:21:56;;;;;;;41.95;25.98;;;10.30;99.90;;;;;;5015278;28;20508;-81
2024/03/07 11:24:32;;;;;;;42.25;26.55;;;10.20;99.90;;;;;;5014358;28;20022;-84
2024/03/07 11:26:58;;;;;;;42.30;25.48;;;10.40;99.90;;;;;;5017693;28;20038;-83
2024/03/07 11:29:47;;;;;;;43.00;27.10;;;10.50;99.90;;;;;;5015749;28;20096;-77
2024/03/07 11:32:14;;;;;;;38.00;23.77;;;10.70;99.90;;;;;;4999766;28;20021;-85
2024/03/07 11:34:47;;;;;;;36.53;23.75;;;10.90;99.90;;;;;;5013705;28;20541;-73
2024/03/07 11:37:40;;;;;;;38.53;22.45;;;11.20;99.90;;;;;;5017276;28;20057;-85
2024/03/07 11:40:08;;;;;;;36.80;23.30;;;11.20;99.90;;;;;;5016686;28;20033;-74
2024/03/07 11:42:35;;;;;;;35.22;21.92;;;11.20;99.90;;;;;;5016831;28;20375;-83
2024/03/07 11:45:05;;;;;;;34.28;20.60;;;11.20;99.90;;;;;;5016335;28;20129;-85
2024/03/07 11:47:38;;;;;;;32.97;20.50;;;11.10;99.90;;;;;;5015832;28;20040;-80
2024/03/07 11:50:11;;;;;;;33.75;22.10;;;11.00;99.90;;;;;;5016804;28;20024;-85
2024/03/07 11:52:38;;;;;;;;;;;10.90;99.90;;;;;;5014058;28;20030;-89
2024/03/07 11:55:04;;;;;;;33.08;19.88;;;10.90;99.90;;;;;;4997222;28;19932;-77
2024/03/07 11:57:33;;;;;;;35.75;19.23;;;11.00;99.90;;;;;;5018331;28;20486;-81
2024/03/07 12:00:08;;;;;;;32.85;20.35;;;10.90;99.90;;;;;;5001764;28;20026;-80
2024/03/07 12:02:33;;;;;;;30.33;18.52;;;10.90;99.90;;;;;;5018977;28;20509;-82
2024/03/07 12:05:00;;;;;;;28.50;17.23;;;10.90;99.90;;;;;;5020391;28;20026;-79
2024/03/07 12:07:26;;;;;;;29.27;18.40;;;11.00;99.90;;;;;;5019404;28;20025;-82
2024/03/07 12:09:55;;;;;;;28.08;17.65;;;11.10;99.90;;;;;;5018615;28;20033;-87
2024/03/07 12:12:22;;;;;;;30.48;18.42;;;11.00;99.90;;;;;;5019159;28;20510;-82
2024/03/07 12:14:52;;;;;;;27.10;17.50;;;10.90;99.90;;;;;;5020776;28;20081;-82
2024/03/07 12:17:18;;;;;;;26.38;17.50;;;10.90;99.90;;;;;;5002687;28;20060;-82
2024/03/07 12:19:46;;;;;;;29.23;18.75;;;10.80;99.90;;;;;;5019296;28;20021;-81
2024/03/07 12:22:12;;;;;;;27.83;17.35;;;10.70;99.90;;;;;;5018822;28;20048;-81
2024/03/07 12:24:41;;;;;;;30.58;17.60;;;11.00;99.90;;;;;;5014994;28;20022;-80
2024/03/07 12:27:12;;;;;;;26.80;16.92;;;11.10;99.90;;;;;;5020778;28;20026;-80
2024/03/07 12:29:39;;;;;;;30.60;16.73;;;11.30;99.90;;;;;;5020540;28;20144;-85
2024/03/07 12:32:13;;;;;;;27.35;17.13;;;11.20;99.90;;;;;;5017017;28;20025;-75
2024/03/07 12:34:45;;;;;;;35.17;19.25;;;11.20;99.90;;;;;;5015877;28;20368;-78
2024/03/07 12:37:10;;;;;;;28.52;19.13;;;11.40;99.90;;;;;;5019755;28;20030;-74